createdAt,value
2016-11-29T00:00:31.545Z,41.67
2016-11-29T00:01:12.294Z,41.6
2016-11-29T00:01:53.052Z,41.7
2016-11-29T00:02:33.810Z,41.7
2016-11-29T00:03:14.578Z,41.7
2016-11-29T00:03:55.315Z,41.7
2016-11-29T00:04:36.097Z,41.6
2016-11-29T00:05:16.854Z,41.7
2016-11-29T00:05:57.609Z,41.6
2016-11-29T00:06:38.384Z,41.7
2016-11-29T00:07:19.146Z,41.5
2016-11-29T00:07:59.885Z,41.99
2016-11-29T00:08:40.643Z,41.7
2016-11-29T00:09:21.414Z,41.79
2016-11-29T00:10:02.157Z,41.58
2016-11-29T00:10:42.908Z,41.7
2016-11-29T00:11:23.689Z,41.67
2016-11-29T00:12:05.034Z,41.6
2016-11-29T00:12:45.816Z,41.7
2016-11-29T00:13:26.585Z,41.79
2016-11-29T00:14:07.351Z,41.7
2016-11-29T00:14:49.620Z,41.79
2016-11-29T00:15:30.395Z,41.7
2016-11-29T00:16:11.161Z,41.6
2016-11-29T00:16:51.901Z,41.6
2016-11-29T00:17:32.659Z,41.79
2016-11-29T00:18:13.407Z,41.89
2016-11-29T00:18:54.162Z,41.7
2016-11-29T00:19:34.924Z,41.6
2016-11-29T00:20:15.693Z,41.89
2016-11-29T00:20:56.454Z,41.77
2016-11-29T00:21:37.203Z,41.7
2016-11-29T00:22:17.975Z,41.77
2016-11-29T00:22:58.726Z,41.7
2016-11-29T00:23:39.481Z,41.7
2016-11-29T00:24:20.246Z,41.7
2016-11-29T00:25:00.999Z,41.7
2016-11-29T00:25:41.756Z,41.87
2016-11-29T00:26:22.517Z,41.58
2016-11-29T00:27:03.292Z,41.7
2016-11-29T00:27:44.028Z,41.7
2016-11-29T00:28:24.796Z,41.77
2016-11-29T00:29:05.551Z,41.7
2016-11-29T00:29:46.300Z,41.6
2016-11-29T00:30:27.046Z,41.79
2016-11-29T00:31:07.824Z,41.79
2016-11-29T00:31:48.584Z,41.7
2016-11-29T00:32:29.343Z,41.79
2016-11-29T00:33:10.125Z,41.7
2016-11-29T00:33:50.872Z,41.7
2016-11-29T00:34:31.622Z,41.39
2016-11-29T00:35:12.391Z,41.7
2016-11-29T00:35:53.135Z,41.7
2016-11-29T00:36:33.886Z,41.7
2016-11-29T00:37:14.639Z,41.67
2016-11-29T00:37:55.400Z,41.67
2016-11-29T00:38:36.136Z,41.6
2016-11-29T00:39:16.916Z,41.58
2016-11-29T00:39:57.698Z,41.87
2016-11-29T00:40:38.450Z,41.6
2016-11-29T00:41:19.195Z,41.7
2016-11-29T00:41:59.991Z,41.7
2016-11-29T00:42:40.750Z,41.5
2016-11-29T00:43:21.517Z,41.6
2016-11-29T00:44:02.322Z,41.79
2016-11-29T00:44:43.084Z,41.67
2016-11-29T00:45:23.839Z,41.7
2016-11-29T00:46:04.603Z,41.77
2016-11-29T00:46:45.351Z,41.79
2016-11-29T00:47:26.082Z,41.87
2016-11-29T00:48:07.519Z,41.77
2016-11-29T00:48:47.612Z,41.89
2016-11-29T00:49:28.343Z,41.67
2016-11-29T00:50:09.125Z,41.79
2016-11-29T00:50:49.889Z,41.79
2016-11-29T00:51:30.666Z,41.79
2016-11-29T00:52:11.412Z,41.6
2016-11-29T00:52:53.183Z,41.58
2016-11-29T00:53:33.938Z,41.5
2016-11-29T00:54:14.703Z,41.5
2016-11-29T00:54:55.501Z,41.79
2016-11-29T00:55:36.268Z,41.48
2016-11-29T00:56:17.034Z,41.5
2016-11-29T00:56:57.783Z,41.79
2016-11-29T00:57:38.562Z,41.48
2016-11-29T00:58:19.293Z,41.5
2016-11-29T00:59:00.075Z,41.58
2016-11-29T00:59:40.830Z,41.89
2016-11-29T01:00:21.559Z,41.58
2016-11-29T01:01:02.330Z,41.5
2016-11-29T01:01:43.075Z,41.6
2016-11-29T01:02:23.819Z,41.39
2016-11-29T01:03:04.563Z,41.41
2016-11-29T01:03:45.339Z,41.48
2016-11-29T01:04:26.102Z,41.7
2016-11-29T01:05:06.858Z,41.5
2016-11-29T01:05:48.261Z,41.39
2016-11-29T01:06:28.993Z,41.6
2016-11-29T01:07:09.729Z,41.6
2016-11-29T01:07:50.499Z,41.41
2016-11-29T01:08:31.265Z,41.39
2016-11-29T01:09:12.018Z,41.41
2016-11-29T01:09:52.776Z,41.5
2016-11-29T01:10:33.525Z,41.6
2016-11-29T01:11:14.272Z,41.67
2016-11-29T01:11:55.041Z,41.39
2016-11-29T01:12:35.779Z,41.6
2016-11-29T01:13:16.551Z,41.7
2016-11-29T01:13:57.315Z,41.5
2016-11-29T01:14:38.089Z,41.67
2016-11-29T01:15:18.821Z,41.6
2016-11-29T01:15:59.560Z,41.58
2016-11-29T01:16:40.342Z,41.67
2016-11-29T01:17:21.122Z,41.67
2016-11-29T01:18:01.864Z,41.67
2016-11-29T01:18:42.626Z,41.58
2016-11-29T01:19:23.407Z,41.67
2016-11-29T01:20:04.139Z,41.5
2016-11-29T01:20:44.916Z,41.48
2016-11-29T01:21:25.684Z,41.5
2016-11-29T01:22:06.428Z,41.58
2016-11-29T01:22:47.186Z,41.39
2016-11-29T01:23:27.963Z,41.77
2016-11-29T01:24:08.719Z,41.48
2016-11-29T01:24:49.456Z,41.7
2016-11-29T01:25:30.210Z,41.41
2016-11-29T01:26:10.957Z,41.6
2016-11-29T01:26:51.714Z,41.31
2016-11-29T01:27:32.490Z,41.58
2016-11-29T01:28:13.232Z,41.6
2016-11-29T01:28:53.985Z,41.58
2016-11-29T01:29:34.729Z,41.39
2016-11-29T01:30:15.501Z,41.48
2016-11-29T01:30:56.256Z,41.58
2016-11-29T01:31:37.020Z,41.6
2016-11-29T01:32:17.779Z,41.58
2016-11-29T01:32:58.523Z,41.48
2016-11-29T01:33:39.287Z,41.48
2016-11-29T01:34:20.063Z,41.48
2016-11-29T01:35:00.825Z,41.58
2016-11-29T01:35:41.576Z,41.58
2016-11-29T01:36:22.362Z,41.48
2016-11-29T01:37:03.129Z,41.39
2016-11-29T01:37:43.883Z,41.48
2016-11-29T01:38:24.701Z,41.48
2016-11-29T01:39:05.441Z,41.58
2016-11-29T01:39:46.193Z,41.39
2016-11-29T01:40:26.968Z,41.48
2016-11-29T01:41:07.727Z,41.48
2016-11-29T01:41:48.455Z,41.58
2016-11-29T01:42:29.216Z,41.58
2016-11-29T01:43:09.968Z,41.58
2016-11-29T01:43:50.718Z,41.48
2016-11-29T01:44:31.480Z,41.6
2016-11-29T01:45:12.249Z,41.29
2016-11-29T01:45:52.993Z,41.58
2016-11-29T01:46:33.737Z,41.39
2016-11-29T01:47:14.510Z,41.48
2016-11-29T01:47:55.266Z,41.48
2016-11-29T01:48:36.000Z,41.58
2016-11-29T01:49:16.800Z,41.39
2016-11-29T01:49:57.557Z,41.58
2016-11-29T01:50:38.324Z,41.6
2016-11-29T01:51:19.086Z,41.6
2016-11-29T01:51:59.848Z,41.48
2016-11-29T01:52:40.602Z,41.6
2016-11-29T01:53:21.357Z,41.58
2016-11-29T01:54:02.157Z,41.67
2016-11-29T01:54:42.877Z,41.29
2016-11-29T01:55:23.644Z,41.58
2016-11-29T01:56:04.402Z,41.5
2016-11-29T01:56:45.159Z,41.48
2016-11-29T01:57:25.905Z,41.58
2016-11-29T01:58:06.695Z,41.48
2016-11-29T01:58:47.452Z,41.41
2016-11-29T01:59:28.204Z,41.67
2016-11-29T02:00:08.992Z,41.48
2016-11-29T02:00:49.746Z,41.31
2016-11-29T02:01:30.477Z,41.67
2016-11-29T02:02:11.243Z,41.29
2016-11-29T02:02:52.018Z,41.5
2016-11-29T02:03:32.763Z,41.31
2016-11-29T02:04:13.539Z,41.31
2016-11-29T02:04:54.298Z,41.41
2016-11-29T02:05:35.078Z,41.48
2016-11-29T02:06:15.815Z,41.5
2016-11-29T02:06:56.598Z,41.41
2016-11-29T02:07:37.346Z,41.41
2016-11-29T02:08:18.108Z,41.5
2016-11-29T02:08:58.835Z,41.48
2016-11-29T02:09:39.605Z,41.41
2016-11-29T02:10:20.371Z,41.39
2016-11-29T02:11:01.089Z,41.39
2016-11-29T02:11:41.876Z,41.41
2016-11-29T02:12:22.641Z,41.39
2016-11-29T02:13:03.413Z,41.48
2016-11-29T02:13:44.184Z,41.48
2016-11-29T02:14:24.994Z,41.48
2016-11-29T02:15:05.742Z,41.5
2016-11-29T02:15:46.489Z,41.31
2016-11-29T02:16:27.263Z,41.6
2016-11-29T02:17:08.016Z,41.48
2016-11-29T02:17:48.771Z,41.39
2016-11-29T02:18:29.535Z,41.39
2016-11-29T02:19:10.319Z,41.5
2016-11-29T02:19:51.053Z,41.39
2016-11-29T02:20:31.818Z,41.39
2016-11-29T02:21:12.626Z,41.48
2016-11-29T02:21:53.367Z,41.39
2016-11-29T02:22:34.156Z,41.48
2016-11-29T02:23:14.927Z,41.48
2016-11-29T02:23:55.678Z,41.29
2016-11-29T02:24:36.477Z,41.29
2016-11-29T02:25:17.238Z,41.48
2016-11-29T02:25:57.975Z,41.48
2016-11-29T02:26:38.727Z,41.48
2016-11-29T02:27:19.489Z,41.39
2016-11-29T02:28:00.238Z,41.48
2016-11-29T02:28:40.994Z,41.39
2016-11-29T02:29:21.772Z,41.48
2016-11-29T02:30:02.527Z,41.39
2016-11-29T02:30:43.271Z,41.48
2016-11-29T02:31:24.049Z,41.39
2016-11-29T02:32:04.813Z,41.48
2016-11-29T02:32:45.562Z,41.39
2016-11-29T02:33:26.329Z,41.39
2016-11-29T02:34:07.098Z,41.39
2016-11-29T02:34:47.831Z,41.48
2016-11-29T02:35:28.592Z,41.48
2016-11-29T02:36:09.374Z,41.6
2016-11-29T02:36:50.125Z,41.48
2016-11-29T02:37:30.879Z,41.48
2016-11-29T02:38:11.659Z,41.48
2016-11-29T02:38:52.418Z,41.39
2016-11-29T02:39:33.172Z,41.39
2016-11-29T02:40:13.947Z,41.48
2016-11-29T02:40:54.702Z,41.48
2016-11-29T02:41:35.475Z,41.48
2016-11-29T02:42:16.237Z,41.48
2016-11-29T02:42:56.995Z,41.7
2016-11-29T02:43:37.724Z,41.58
2016-11-29T02:44:18.504Z,41.48
2016-11-29T02:44:59.260Z,41.67
2016-11-29T02:45:40.008Z,41.58
2016-11-29T02:46:20.762Z,41.58
2016-11-29T02:47:01.537Z,41.48
2016-11-29T02:47:42.269Z,41.39
2016-11-29T02:48:23.022Z,41.39
2016-11-29T02:49:03.812Z,41.39
2016-11-29T02:49:44.535Z,41.39
2016-11-29T02:50:25.296Z,41.41
2016-11-29T02:51:06.052Z,41.48
2016-11-29T02:51:46.819Z,41.48
2016-11-29T02:52:27.562Z,41.58
2016-11-29T02:53:08.328Z,41.48
2016-11-29T02:53:49.085Z,41.58
2016-11-29T02:54:29.839Z,41.48
2016-11-29T02:55:10.627Z,41.48
2016-11-29T02:55:51.352Z,41.67
2016-11-29T02:56:32.096Z,41.48
2016-11-29T02:57:12.861Z,41.48
2016-11-29T02:57:53.640Z,41.67
2016-11-29T02:58:34.399Z,41.58
2016-11-29T02:59:15.127Z,41.48
2016-11-29T02:59:55.910Z,41.58
2016-11-29T03:00:36.672Z,41.48
2016-11-29T03:01:17.421Z,41.48
2016-11-29T03:01:58.203Z,41.48
2016-11-29T03:02:38.974Z,41.48
2016-11-29T03:03:19.710Z,41.39
2016-11-29T03:04:00.458Z,41.39
2016-11-29T03:04:41.229Z,41.48
2016-11-29T03:05:21.987Z,41.39
2016-11-29T03:06:02.748Z,41.58
2016-11-29T03:06:43.499Z,41.77
2016-11-29T03:07:24.250Z,41.48
2016-11-29T03:08:05.014Z,41.39
2016-11-29T03:08:45.793Z,41.48
2016-11-29T03:09:26.554Z,41.48
2016-11-29T03:10:07.299Z,41.39
2016-11-29T03:10:48.079Z,41.48
2016-11-29T03:11:28.805Z,41.48
2016-11-29T03:12:09.567Z,41.48
2016-11-29T03:12:50.321Z,41.58
2016-11-29T03:13:31.071Z,41.39
2016-11-29T03:14:11.838Z,41.48
2016-11-29T03:14:52.590Z,41.39
2016-11-29T03:15:33.368Z,41.48
2016-11-29T03:16:14.126Z,41.39
2016-11-29T03:16:54.896Z,41.58
2016-11-29T03:17:35.676Z,41.39
2016-11-29T03:18:16.429Z,41.39
2016-11-29T03:18:57.176Z,41.48
2016-11-29T03:19:37.975Z,41.48
2016-11-29T03:20:18.726Z,41.48
2016-11-29T03:20:59.477Z,41.39
2016-11-29T03:21:40.249Z,41.39
2016-11-29T03:22:21.004Z,41.48
2016-11-29T03:23:01.773Z,41.39
2016-11-29T03:23:42.537Z,41.67
2016-11-29T03:24:23.294Z,41.48
2016-11-29T03:25:04.039Z,41.48
2016-11-29T03:25:44.821Z,41.58
2016-11-29T03:26:25.626Z,41.48
2016-11-29T03:27:06.370Z,41.48
2016-11-29T03:27:47.817Z,41.58
2016-11-29T03:28:28.581Z,41.58
2016-11-29T03:29:09.329Z,41.58
2016-11-29T03:29:50.078Z,41.48
2016-11-29T03:30:31.601Z,41.39
2016-11-29T03:31:11.625Z,41.58
2016-11-29T03:31:52.380Z,41.58
2016-11-29T03:32:33.169Z,41.58
2016-11-29T03:33:13.912Z,41.58
2016-11-29T03:33:54.658Z,41.48
2016-11-29T03:34:35.415Z,41.39
2016-11-29T03:35:16.173Z,41.48
2016-11-29T03:35:56.916Z,41.39
2016-11-29T03:36:37.695Z,41.58
2016-11-29T03:37:18.476Z,41.67
2016-11-29T03:37:59.200Z,41.39
2016-11-29T03:38:39.989Z,41.58
2016-11-29T03:39:20.740Z,41.48
2016-11-29T03:40:01.500Z,41.39
2016-11-29T03:40:42.267Z,41.58
2016-11-29T03:41:23.040Z,41.48
2016-11-29T03:42:03.781Z,41.48
2016-11-29T03:42:44.536Z,41.58
2016-11-29T03:43:25.318Z,41.58
2016-11-29T03:44:06.066Z,41.58
2016-11-29T03:44:46.820Z,41.48
2016-11-29T03:45:27.599Z,41.39
2016-11-29T03:46:08.372Z,41.58
2016-11-29T03:46:49.112Z,41.39
2016-11-29T03:47:29.880Z,41.48
2016-11-29T03:48:10.653Z,41.58
2016-11-29T03:48:51.379Z,41.67
2016-11-29T03:49:32.152Z,41.58
2016-11-29T03:50:12.949Z,41.39
2016-11-29T03:50:53.689Z,41.48
2016-11-29T03:51:34.457Z,41.58
2016-11-29T03:52:15.217Z,41.39
2016-11-29T03:52:55.972Z,41.58
2016-11-29T03:53:36.742Z,41.39
2016-11-29T03:54:17.540Z,41.48
2016-11-29T03:54:58.295Z,41.39
2016-11-29T03:55:39.051Z,41.48
2016-11-29T03:56:19.826Z,41.48
2016-11-29T03:57:00.599Z,41.58
2016-11-29T03:57:41.369Z,41.48
2016-11-29T03:58:22.138Z,41.39
2016-11-29T03:59:02.910Z,41.39
2016-11-29T03:59:43.646Z,41.48
2016-11-29T04:00:24.413Z,41.39
2016-11-29T04:01:05.184Z,41.39
2016-11-29T04:01:45.936Z,41.58
2016-11-29T04:02:26.675Z,41.58
2016-11-29T04:03:07.452Z,41.48
2016-11-29T04:03:48.212Z,41.39
2016-11-29T04:04:28.947Z,41.48
2016-11-29T04:05:09.720Z,41.58
2016-11-29T04:05:50.481Z,41.58
2016-11-29T04:06:31.231Z,41.48
2016-11-29T04:07:12.040Z,41.39
2016-11-29T04:07:52.760Z,41.48
2016-11-29T04:08:33.519Z,41.48
2016-11-29T04:09:14.263Z,41.48
2016-11-29T04:09:55.026Z,41.39
2016-11-29T04:10:35.769Z,41.58
2016-11-29T04:11:16.550Z,41.39
2016-11-29T04:11:57.304Z,41.39
2016-11-29T04:12:38.052Z,41.39
2016-11-29T04:13:18.832Z,41.58
2016-11-29T04:13:59.601Z,41.48
2016-11-29T04:14:40.352Z,41.48
2016-11-29T04:15:21.103Z,41.48
2016-11-29T04:16:01.879Z,41.67
2016-11-29T04:16:42.644Z,41.39
2016-11-29T04:17:23.404Z,41.39
2016-11-29T04:18:04.219Z,41.39
2016-11-29T04:18:44.965Z,41.58
2016-11-29T04:19:25.721Z,41.58
2016-11-29T04:20:06.483Z,41.39
2016-11-29T04:20:47.248Z,41.39
2016-11-29T04:21:28.005Z,41.39
2016-11-29T04:22:08.764Z,41.48
2016-11-29T04:22:49.531Z,41.39
2016-11-29T04:23:30.250Z,41.58
2016-11-29T04:24:11.007Z,41.48
2016-11-29T04:24:51.757Z,41.39
2016-11-29T04:25:32.526Z,41.39
2016-11-29T04:26:13.296Z,41.67
2016-11-29T04:26:54.059Z,41.48
2016-11-29T04:27:34.819Z,41.48
2016-11-29T04:28:15.596Z,41.48
2016-11-29T04:28:56.347Z,41.48
2016-11-29T04:29:37.151Z,41.48
2016-11-29T04:30:17.900Z,41.58
2016-11-29T04:30:58.643Z,41.39
2016-11-29T04:31:39.379Z,41.48
2016-11-29T04:32:20.154Z,41.48
2016-11-29T04:33:00.922Z,41.48
2016-11-29T04:33:41.671Z,41.39
2016-11-29T04:34:22.452Z,41.39
2016-11-29T04:35:03.195Z,41.48
2016-11-29T04:35:43.955Z,41.48
2016-11-29T04:36:24.750Z,41.48
2016-11-29T04:37:05.518Z,41.39
2016-11-29T04:37:46.249Z,41.48
2016-11-29T04:38:27.024Z,41.39
2016-11-29T04:39:07.769Z,41.48
2016-11-29T04:39:48.523Z,41.39
2016-11-29T04:40:29.295Z,41.48
2016-11-29T04:41:10.049Z,41.29
2016-11-29T04:41:50.812Z,41.39
2016-11-29T04:42:31.572Z,41.39
2016-11-29T04:43:12.380Z,41.39
2016-11-29T04:43:53.124Z,41.39
2016-11-29T04:44:33.899Z,41.39
2016-11-29T04:45:14.678Z,41.29
2016-11-29T04:45:55.462Z,41.29
2016-11-29T04:46:36.223Z,41.39
2016-11-29T04:47:16.978Z,41.39
2016-11-29T04:47:57.730Z,41.39
2016-11-29T04:48:38.478Z,41.48
2016-11-29T04:49:19.234Z,41.39
2016-11-29T04:49:59.990Z,41.39
2016-11-29T04:50:40.712Z,41.48
2016-11-29T04:51:21.471Z,41.48
2016-11-29T04:52:02.230Z,41.48
2016-11-29T04:52:42.970Z,41.29
2016-11-29T04:53:23.707Z,41.39
2016-11-29T04:54:04.482Z,41.39
2016-11-29T04:54:45.235Z,41.58
2016-11-29T04:55:25.979Z,41.29
2016-11-29T04:56:06.757Z,41.48
2016-11-29T04:56:47.516Z,41.39
2016-11-29T04:57:28.270Z,41.58
2016-11-29T04:58:09.041Z,41.48
2016-11-29T04:58:49.803Z,41.19
2016-11-29T04:59:30.532Z,41.48
2016-11-29T05:00:11.315Z,41.39
2016-11-29T05:00:52.072Z,41.39
2016-11-29T05:01:32.821Z,41.39
2016-11-29T05:02:13.601Z,41.39
2016-11-29T05:02:54.369Z,41.48
2016-11-29T05:03:35.119Z,41.29
2016-11-29T05:04:15.883Z,41.48
2016-11-29T05:04:56.662Z,41.39
2016-11-29T05:05:37.429Z,41.29
2016-11-29T05:06:18.660Z,41.29
2016-11-29T05:06:58.955Z,41.48
2016-11-29T05:07:39.685Z,41.39
2016-11-29T05:08:20.471Z,41.39
2016-11-29T05:09:01.250Z,41.48
2016-11-29T05:09:42.020Z,41.29
2016-11-29T05:10:22.766Z,41.29
2016-11-29T05:11:03.539Z,41.29
2016-11-29T05:11:44.333Z,41.48
2016-11-29T05:12:25.070Z,41.58
2016-11-29T05:13:05.839Z,41.39
2016-11-29T05:13:46.603Z,41.29
2016-11-29T05:14:27.349Z,41.39
2016-11-29T05:15:08.095Z,41.58
2016-11-29T05:15:48.862Z,41.29
2016-11-29T05:16:29.610Z,41.48
2016-11-29T05:17:10.378Z,41.39
2016-11-29T05:17:51.165Z,41.29
2016-11-29T05:18:31.893Z,41.48
2016-11-29T05:19:12.634Z,41.39
2016-11-29T05:19:53.405Z,41.29
2016-11-29T05:20:34.158Z,41.39
2016-11-29T05:21:14.893Z,41.48
2016-11-29T05:21:55.669Z,41.39
2016-11-29T05:22:36.447Z,41.39
2016-11-29T05:23:17.176Z,41.48
2016-11-29T05:23:57.953Z,41.29
2016-11-29T05:24:38.714Z,41.48
2016-11-29T05:25:19.468Z,41.39
2016-11-29T05:26:00.212Z,41.67
2016-11-29T05:26:40.987Z,41.58
2016-11-29T05:27:21.737Z,41.58
2016-11-29T05:28:02.468Z,41.67
2016-11-29T05:28:43.264Z,41.58
2016-11-29T05:29:24.022Z,41.58
2016-11-29T05:30:04.765Z,41.48
2016-11-29T05:30:45.528Z,41.67
2016-11-29T05:31:26.290Z,41.58
2016-11-29T05:32:07.043Z,41.67
2016-11-29T05:32:47.809Z,41.48
2016-11-29T05:33:28.581Z,41.67
2016-11-29T05:34:09.309Z,41.58
2016-11-29T05:34:50.068Z,41.48
2016-11-29T05:35:30.817Z,41.39
2016-11-29T05:36:11.562Z,41.48
2016-11-29T05:36:52.307Z,41.48
2016-11-29T05:37:33.089Z,41.48
2016-11-29T05:38:13.835Z,41.48
2016-11-29T05:38:54.597Z,41.58
2016-11-29T05:39:35.377Z,41.48
2016-11-29T05:40:16.121Z,41.48
2016-11-29T05:40:56.884Z,41.39
2016-11-29T05:41:37.639Z,41.58
2016-11-29T05:42:18.428Z,41.48
2016-11-29T05:42:59.159Z,41.48
2016-11-29T05:43:39.926Z,41.58
2016-11-29T05:44:20.692Z,41.58
2016-11-29T05:45:01.423Z,41.58
2016-11-29T05:45:42.182Z,41.58
2016-11-29T05:46:22.951Z,41.29
2016-11-29T05:47:03.693Z,41.58
2016-11-29T05:47:45.181Z,41.48
2016-11-29T05:48:25.230Z,41.67
2016-11-29T05:49:05.982Z,41.48
2016-11-29T05:49:46.738Z,41.48
2016-11-29T05:50:27.526Z,41.39
2016-11-29T05:51:08.253Z,41.58
2016-11-29T05:51:49.024Z,41.39
2016-11-29T05:52:29.766Z,41.39
2016-11-29T05:53:10.547Z,41.48
2016-11-29T05:53:51.278Z,41.39
2016-11-29T05:54:32.041Z,41.48
2016-11-29T05:55:12.800Z,41.48
2016-11-29T05:55:53.535Z,41.39
2016-11-29T05:56:34.320Z,41.39
2016-11-29T05:57:15.073Z,41.58
2016-11-29T05:57:55.810Z,41.29
2016-11-29T05:58:36.564Z,41.58
2016-11-29T05:59:17.346Z,41.48
2016-11-29T05:59:58.075Z,41.29
2016-11-29T06:00:38.824Z,41.67
2016-11-29T06:01:19.592Z,41.29
2016-11-29T06:02:00.331Z,41.58
2016-11-29T06:02:41.088Z,41.58
2016-11-29T06:03:21.850Z,41.58
2016-11-29T06:04:02.604Z,41.48
2016-11-29T06:04:43.332Z,41.29
2016-11-29T06:05:24.082Z,41.58
2016-11-29T06:06:04.853Z,41.58
2016-11-29T06:06:45.610Z,41.58
2016-11-29T06:07:26.376Z,41.39
2016-11-29T06:08:07.129Z,41.48
2016-11-29T06:08:47.886Z,41.48
2016-11-29T06:09:28.644Z,41.48
2016-11-29T06:10:09.415Z,41.29
2016-11-29T06:10:50.170Z,41.58
2016-11-29T06:11:30.918Z,41.58
2016-11-29T06:12:11.703Z,41.58
2016-11-29T06:12:52.435Z,41.67
2016-11-29T06:13:33.188Z,41.39
2016-11-29T06:14:13.941Z,41.67
2016-11-29T06:14:54.698Z,41.39
2016-11-29T06:15:35.455Z,41.58
2016-11-29T06:16:16.206Z,41.29
2016-11-29T06:16:56.967Z,41.46
2016-11-29T06:17:37.713Z,41.58
2016-11-29T06:18:18.473Z,41.48
2016-11-29T06:18:59.217Z,41.58
2016-11-29T06:19:39.965Z,41.58
2016-11-29T06:20:20.711Z,41.58
2016-11-29T06:21:01.493Z,41.39
2016-11-29T06:21:42.261Z,41.67
2016-11-29T06:22:23.035Z,41.39
2016-11-29T06:23:03.804Z,41.58
2016-11-29T06:23:44.545Z,41.67
2016-11-29T06:24:25.299Z,41.39
2016-11-29T06:25:06.068Z,41.58
2016-11-29T06:25:46.853Z,41.48
2016-11-29T06:26:27.598Z,41.48
2016-11-29T06:27:08.371Z,41.48
2016-11-29T06:27:49.125Z,41.58
2016-11-29T06:28:29.854Z,41.48
2016-11-29T06:29:10.619Z,41.29
2016-11-29T06:29:51.377Z,41.39
2016-11-29T06:30:32.136Z,41.39
2016-11-29T06:31:12.899Z,41.19
2016-11-29T06:31:53.683Z,41.39
2016-11-29T06:32:34.443Z,41.29
2016-11-29T06:33:15.199Z,41.29
2016-11-29T06:33:55.980Z,41.39
2016-11-29T06:34:36.795Z,41.39
2016-11-29T06:35:17.543Z,41.48
2016-11-29T06:35:58.303Z,41.39
2016-11-29T06:36:39.062Z,41.39
2016-11-29T06:37:19.798Z,41.39
2016-11-29T06:38:00.571Z,41.29
2016-11-29T06:38:41.337Z,41.39
2016-11-29T06:39:22.078Z,41.29
2016-11-29T06:40:02.862Z,41.29
2016-11-29T06:40:43.599Z,41.29
2016-11-29T06:41:24.347Z,41.29
2016-11-29T06:42:05.111Z,41.39
2016-11-29T06:42:45.903Z,41.39
2016-11-29T06:43:26.676Z,41.48
2016-11-29T06:44:07.452Z,41.39
2016-11-29T06:44:48.192Z,41.58
2016-11-29T06:45:28.956Z,41.39
2016-11-29T06:46:09.702Z,41.48
2016-11-29T06:46:50.456Z,41.48
2016-11-29T06:47:31.224Z,41.39
2016-11-29T06:48:12.029Z,41.39
2016-11-29T06:48:52.769Z,41.58
2016-11-29T06:49:33.526Z,41.48
2016-11-29T06:50:14.297Z,41.58
2016-11-29T06:50:55.069Z,41.58
2016-11-29T06:51:35.824Z,41.48
2016-11-29T06:52:16.581Z,41.39
2016-11-29T06:52:57.343Z,41.39
2016-11-29T06:53:38.091Z,41.48
2016-11-29T06:54:18.859Z,41.39
2016-11-29T06:54:59.667Z,41.48
2016-11-29T06:55:40.402Z,41.48
2016-11-29T06:56:21.166Z,41.39
2016-11-29T06:57:01.955Z,41.48
2016-11-29T06:57:42.705Z,41.48
2016-11-29T06:58:23.452Z,41.39
2016-11-29T06:59:04.218Z,41.48
2016-11-29T06:59:44.970Z,41.39
2016-11-29T07:00:25.735Z,41.48
2016-11-29T07:01:06.522Z,41.29
2016-11-29T07:01:47.254Z,41.39
2016-11-29T07:02:28.017Z,41.48
2016-11-29T07:03:08.782Z,41.48
2016-11-29T07:03:49.549Z,41.39
2016-11-29T07:04:30.287Z,41.29
2016-11-29T07:05:11.056Z,41.48
2016-11-29T07:05:51.824Z,41.58
2016-11-29T07:06:32.588Z,41.39
2016-11-29T07:07:13.361Z,41.48
2016-11-29T07:07:54.113Z,41.29
2016-11-29T07:08:34.872Z,41.19
2016-11-29T07:09:15.638Z,41.48
2016-11-29T07:09:56.404Z,41.39
2016-11-29T07:10:37.783Z,41.39
2016-11-29T07:11:18.569Z,41.48
2016-11-29T07:11:59.357Z,41.29
2016-11-29T07:12:40.101Z,41.48
2016-11-29T07:13:20.860Z,41.29
2016-11-29T07:14:01.638Z,41.39
2016-11-29T07:14:42.386Z,41.29
2016-11-29T07:15:23.143Z,41.48
2016-11-29T07:16:03.906Z,41.29
2016-11-29T07:16:44.681Z,41.48
2016-11-29T07:17:25.422Z,41.67
2016-11-29T07:18:06.195Z,41.67
2016-11-29T07:18:46.967Z,41.48
2016-11-29T07:19:27.746Z,41.58
2016-11-29T07:20:08.492Z,41.48
2016-11-29T07:20:49.276Z,41.48
2016-11-29T07:21:30.020Z,41.48
2016-11-29T07:22:10.781Z,41.58
2016-11-29T07:22:51.549Z,41.58
2016-11-29T07:23:32.315Z,41.58
2016-11-29T07:24:13.069Z,41.48
2016-11-29T07:24:53.818Z,41.67
2016-11-29T07:25:34.586Z,41.58
2016-11-29T07:26:15.347Z,41.48
2016-11-29T07:26:56.116Z,41.58
2016-11-29T07:27:36.896Z,41.48
2016-11-29T07:28:17.630Z,41.39
2016-11-29T07:28:58.421Z,41.67
2016-11-29T07:29:39.199Z,41.58
2016-11-29T07:30:19.956Z,41.5
2016-11-29T07:31:00.708Z,41.58
2016-11-29T07:31:41.491Z,41.48
2016-11-29T07:32:22.234Z,41.09
2016-11-29T07:33:02.997Z,41.09
2016-11-29T07:33:43.792Z,41.09
2016-11-29T07:34:24.543Z,41.02
2016-11-29T07:35:05.302Z,40.81
2016-11-29T07:35:46.124Z,40.81
2016-11-29T07:36:26.908Z,41.02
2016-11-29T07:37:07.644Z,41
2016-11-29T07:37:48.457Z,41.09
2016-11-29T07:38:29.235Z,40.92
2016-11-29T07:39:09.986Z,40.83
2016-11-29T07:39:50.780Z,40.9
2016-11-29T07:40:31.574Z,40.73
2016-11-29T07:41:12.343Z,40.73
2016-11-29T07:41:53.093Z,40.73
2016-11-29T07:42:33.891Z,40.92
2016-11-29T07:43:14.663Z,40.73
2016-11-29T07:43:55.416Z,40.83
2016-11-29T07:44:36.201Z,40.83
2016-11-29T07:45:16.972Z,40.83
2016-11-29T07:45:57.735Z,40.73
2016-11-29T07:46:38.498Z,40.73
2016-11-29T07:47:19.264Z,40.73
2016-11-29T07:48:00.015Z,40.73
2016-11-29T07:48:40.803Z,40.63
2016-11-29T07:49:21.589Z,40.63
2016-11-29T07:50:02.346Z,40.63
2016-11-29T07:50:43.131Z,40.53
2016-11-29T07:51:23.895Z,40.63
2016-11-29T07:52:04.649Z,40.63
2016-11-29T07:52:45.391Z,40.53
2016-11-29T07:53:26.168Z,40.53
2016-11-29T07:54:06.936Z,40.53
2016-11-29T07:54:47.689Z,40.44
2016-11-29T07:55:28.468Z,40.44
2016-11-29T07:56:09.266Z,40.53
2016-11-29T07:56:50.044Z,40.53
2016-11-29T07:57:30.812Z,40.44
2016-11-29T07:58:11.586Z,40.63
2016-11-29T07:58:52.340Z,40.73
2016-11-29T07:59:33.139Z,40.53
2016-11-29T08:00:13.876Z,40.53
2016-11-29T08:00:54.623Z,40.83
2016-11-29T08:01:35.398Z,40.44
2016-11-29T08:02:16.683Z,40.73
2016-11-29T08:02:57.473Z,40.53
2016-11-29T08:03:38.249Z,40.53
2016-11-29T08:04:19.084Z,40.53
2016-11-29T08:04:59.843Z,40.73
2016-11-29T08:05:40.589Z,40.44
2016-11-29T08:06:21.411Z,40.53
2016-11-29T08:07:02.195Z,40.63
2016-11-29T08:07:43.765Z,40.53
2016-11-29T08:08:24.663Z,40.25
2016-11-29T08:09:05.453Z,40.44
2016-11-29T08:09:46.206Z,40.44
2016-11-29T08:10:26.986Z,40.34
2016-11-29T08:11:07.745Z,40.53
2016-11-29T08:11:48.533Z,40.63
2016-11-29T08:12:29.341Z,40.44
2016-11-29T08:13:10.087Z,40.63
2016-11-29T08:13:50.873Z,40.44
2016-11-29T08:14:31.632Z,40.44
2016-11-29T08:15:12.425Z,40.34
2016-11-29T08:15:53.221Z,40.44
2016-11-29T08:16:33.971Z,40.34
2016-11-29T08:17:14.776Z,40.34
2016-11-29T08:17:55.522Z,40.73
2016-11-29T08:18:36.295Z,40.34
2016-11-29T08:19:17.070Z,40.34
2016-11-29T08:19:57.824Z,40.34
2016-11-29T08:20:38.593Z,40.25
2016-11-29T08:21:19.378Z,40.34
2016-11-29T08:22:00.170Z,40.25
2016-11-29T08:22:40.928Z,40.34
2016-11-29T08:23:21.735Z,40.34
2016-11-29T08:24:02.512Z,40.44
2016-11-29T08:24:43.290Z,40.53
2016-11-29T08:25:24.046Z,40.73
2016-11-29T08:26:04.839Z,40.44
2016-11-29T08:26:45.604Z,40.63
2016-11-29T08:27:26.379Z,40.44
2016-11-29T08:28:07.156Z,40.44
2016-11-29T08:28:47.905Z,40.53
2016-11-29T08:29:28.694Z,40.44
2016-11-29T08:30:09.465Z,40.63
2016-11-29T08:30:50.264Z,40.44
2016-11-29T08:31:31.044Z,40.53
2016-11-29T08:32:11.824Z,40.83
2016-11-29T08:32:52.665Z,40.34
2016-11-29T08:33:33.441Z,40.25
2016-11-29T08:34:14.216Z,40.34
2016-11-29T08:34:54.984Z,40.44
2016-11-29T08:35:35.776Z,40.44
2016-11-29T08:36:16.604Z,40.34
2016-11-29T08:36:57.393Z,40.44
2016-11-29T08:37:38.192Z,40.44
2016-11-29T08:38:18.955Z,40.44
2016-11-29T08:38:59.744Z,40.53
2016-11-29T08:39:40.526Z,40.53
2016-11-29T08:40:21.297Z,40.73
2016-11-29T08:41:02.052Z,40.44
2016-11-29T08:41:42.833Z,40.34
2016-11-29T08:42:25.051Z,40.53
2016-11-29T08:43:05.841Z,40.34
2016-11-29T08:43:46.663Z,40.34
2016-11-29T08:44:27.419Z,40.44
2016-11-29T08:45:08.189Z,40.34
2016-11-29T08:45:49.775Z,40.63
2016-11-29T08:46:29.707Z,40.34
2016-11-29T08:47:10.501Z,40.53